createdAt,value
2023-05-12T00:01:29.237Z,98.54
2023-05-12T00:03:56.092Z,97.08
2023-05-12T00:06:22.786Z,96.92
2023-05-12T00:08:50.586Z,94.64
2023-05-12T00:11:17.144Z,95.46
2023-05-12T00:13:43.925Z,96.33
2023-05-12T00:16:10.630Z,93.85
2023-05-12T00:18:37.121Z,94.86
2023-05-12T00:21:03.869Z,95.57
2023-05-12T00:23:30.656Z,94.41
2023-05-12T00:25:57.256Z,95.76
2023-05-12T00:28:23.781Z,95.37
2023-05-12T00:30:50.488Z,94.83
2023-05-12T00:33:17.200Z,95.11
2023-05-12T00:35:46.859Z,96.57
2023-05-12T00:38:13.625Z,97.10
2023-05-12T00:40:41.125Z,97.42
2023-05-12T00:43:08.496Z,96.88
2023-05-12T00:45:35.065Z,96.76
2023-05-12T00:48:01.912Z,97.75
2023-05-12T00:50:28.454Z,96.75
2023-05-12T00:52:55.130Z,98.43
2023-05-12T00:55:21.726Z,97.75
2023-05-12T00:57:48.273Z,96.73
2023-05-12T01:00:16.390Z,96.24
2023-05-12T01:02:45.632Z,95.88
2023-05-12T01:05:12.414Z,96.64
2023-05-12T01:07:40.268Z,93.44
2023-05-12T01:10:18.885Z,95.17
2023-05-12T01:12:46.174Z,95.96
2023-05-12T01:15:13.014Z,93.72
2023-05-12T01:17:45.017Z,94.59
2023-05-12T01:20:12.443Z,92.40
2023-05-12T01:22:39.648Z,92.22
2023-05-12T01:25:11.840Z,92.98
2023-05-12T01:27:40.331Z,94.75
2023-05-12T01:30:09.265Z,95.21
2023-05-12T01:32:38.168Z,92.67
2023-05-12T01:35:05.916Z,93.47
2023-05-12T01:37:33.492Z,95.19
2023-05-12T01:40:03.607Z,95.41
2023-05-12T01:42:30.190Z,95.80
2023-05-12T01:44:57.429Z,97.75
2023-05-12T01:47:24.724Z,96.37
2023-05-12T01:50:11.524Z,96.66
2023-05-12T01:52:38.777Z,95.22
2023-05-12T01:55:09.444Z,95.53
2023-05-12T01:57:43.778Z,97.92
2023-05-12T02:00:11.205Z,96.22
2023-05-12T02:02:43.095Z,96.39
2023-05-12T02:05:11.477Z,97.02
2023-05-12T02:07:38.006Z,97.07
2023-05-12T02:10:05.521Z,97.74
2023-05-12T02:12:34.405Z,97.83
2023-05-12T02:15:01.057Z,95.01
2023-05-12T02:17:28.691Z,95.26
2023-05-12T02:19:58.618Z,96.60
2023-05-12T02:22:26.279Z,96.68
2023-05-12T02:24:52.968Z,95.39
2023-05-12T02:27:19.504Z,95.82
2023-05-12T02:29:46.661Z,95.66
2023-05-12T02:32:14.411Z,95.87
2023-05-12T02:34:43.610Z,95.55
2023-05-12T02:37:10.128Z,94.91
2023-05-12T02:39:36.631Z,93.80
2023-05-12T02:42:03.191Z,94.84
2023-05-12T02:44:29.735Z,95.46
2023-05-12T02:46:57.907Z,97.11
2023-05-12T02:49:24.492Z,96.89
2023-05-12T02:51:51.646Z,96.69
2023-05-12T02:54:18.397Z,96.32
2023-05-12T02:56:44.943Z,96.19
2023-05-12T02:59:12.039Z,96.04
2023-05-12T03:01:38.583Z,95.19
2023-05-12T03:04:05.208Z,97.08
2023-05-12T03:06:31.988Z,97.96
2023-05-12T03:08:59.693Z,97.75
2023-05-12T03:11:26.706Z,98.26
2023-05-12T03:13:53.387Z,97.53
2023-05-12T03:16:20.112Z,95.79
2023-05-12T03:18:48.197Z,96.16
2023-05-12T03:21:14.780Z,96.19
2023-05-12T03:23:41.644Z,96.10
2023-05-12T03:26:08.110Z,95.98
2023-05-12T03:28:34.980Z,95.71
2023-05-12T03:31:01.539Z,96.10
2023-05-12T03:33:28.131Z,94.45
2023-05-12T03:35:54.677Z,93.38
2023-05-12T03:38:21.257Z,93.61
2023-05-12T03:40:52.460Z,93.47
2023-05-12T03:43:19.465Z,93.75
2023-05-12T03:45:46.006Z,93.32
2023-05-12T03:48:12.681Z,94.46
2023-05-12T03:50:40.133Z,95.78
2023-05-12T03:53:06.706Z,95.79
2023-05-12T03:55:34.754Z,95.11
2023-05-12T03:58:01.332Z,96.04
2023-05-12T04:00:28.007Z,94.77
2023-05-12T04:02:54.658Z,95.50
2023-05-12T04:05:21.314Z,94.92
2023-05-12T04:07:48.267Z,93.54
2023-05-12T04:10:14.855Z,94.52
2023-05-12T04:12:41.917Z,95.03
2023-05-12T04:15:10.209Z,95.85
2023-05-12T04:17:36.963Z,95.55
2023-05-12T04:20:04.131Z,97.19
2023-05-12T04:22:30.793Z,96.84
2023-05-12T04:24:57.265Z,95.91
2023-05-12T04:27:24.039Z,95.39
2023-05-12T04:29:50.611Z,96.67
2023-05-12T04:32:17.421Z,96.00
2023-05-12T04:34:46.025Z,96.05
2023-05-12T04:37:12.829Z,96.60
2023-05-12T04:39:39.431Z,96.50
2023-05-12T04:42:06.945Z,95.55
2023-05-12T04:44:34.489Z,94.53
2023-05-12T04:47:01.020Z,95.12
2023-05-12T04:49:27.665Z,94.59
2023-05-12T04:51:54.191Z,93.30
2023-05-12T04:54:20.769Z,92.98
2023-05-12T04:56:47.554Z,91.86
2023-05-12T04:59:17.618Z,93.53
2023-05-12T05:01:46.740Z,93.72
2023-05-12T05:04:14.056Z,93.31
2023-05-12T05:06:40.885Z,92.63
2023-05-12T05:09:07.571Z,91.33
2023-05-12T05:11:34.225Z,92.99
2023-05-12T05:14:01.586Z,92.17
2023-05-12T05:16:28.655Z,92.26
2023-05-12T05:18:55.641Z,93.23
2023-05-12T05:21:23.524Z,92.56
2023-05-12T05:23:50.001Z,92.30
2023-05-12T05:26:16.655Z,93.51
2023-05-12T05:28:43.217Z,91.61
2023-05-12T05:31:16.067Z,91.12
2023-05-12T05:33:44.220Z,93.37
2023-05-12T05:36:10.725Z,92.35
2023-05-12T05:38:37.917Z,93.05
2023-05-12T05:41:05.142Z,92.62
2023-05-12T05:43:32.063Z,93.63
2023-05-12T05:45:58.740Z,93.86
2023-05-12T05:48:25.681Z,93.71
2023-05-12T05:50:53.382Z,94.46
2023-05-12T05:53:22.696Z,93.55
2023-05-12T05:55:49.632Z,93.94
2023-05-12T05:58:16.742Z,93.69
2023-05-12T06:00:44.653Z,93.48
2023-05-12T06:03:11.621Z,92.41
2023-05-12T06:05:38.260Z,92.91
2023-05-12T06:08:09.240Z,92.78
2023-05-12T06:10:35.815Z,91.82
2023-05-12T06:13:02.354Z,91.69
2023-05-12T06:15:28.976Z,92.82
2023-05-12T06:17:55.517Z,91.76
2023-05-12T06:20:23.223Z,91.95
2023-05-12T06:22:49.824Z,91.73
2023-05-12T06:25:17.378Z,91.42
2023-05-12T06:27:43.997Z,92.39
2023-05-12T06:30:15.011Z,91.91
2023-05-12T06:32:42.707Z,90.05
2023-05-12T06:35:09.501Z,90.37
2023-05-12T06:37:36.129Z,89.77
2023-05-12T06:40:02.697Z,90.30
2023-05-12T06:42:30.717Z,91.69
2023-05-12T06:44:57.166Z,90.85
2023-05-12T06:47:23.866Z,89.40
2023-05-12T06:49:50.718Z,88.81
2023-05-12T06:52:17.505Z,88.80
2023-05-12T06:54:44.080Z,87.57
2023-05-12T06:57:10.773Z,87.62
2023-05-12T06:59:37.356Z,87.01
2023-05-12T07:02:03.917Z,87.17
2023-05-12T07:04:30.474Z,85.80
2023-05-12T07:06:57.097Z,85.99
2023-05-12T07:09:23.645Z,85.36
2023-05-12T07:11:50.953Z,88.21
2023-05-12T07:14:17.724Z,86.72
2023-05-12T07:16:44.386Z,87.13
2023-05-12T07:19:10.915Z,86.96
2023-05-12T07:21:37.875Z,86.10
2023-05-12T07:24:06.187Z,86.37
2023-05-12T07:26:33.173Z,85.96
2023-05-12T07:29:00.734Z,85.50
2023-05-12T07:31:27.449Z,84.25
2023-05-12T07:33:54.648Z,85.21
2023-05-12T07:36:22.145Z,84.25
2023-05-12T07:38:48.841Z,84.77
2023-05-12T07:41:15.516Z,84.56
2023-05-12T07:43:42.035Z,84.92
2023-05-12T07:46:08.635Z,85.09
2023-05-12T07:48:39.561Z,86.14
2023-05-12T07:51:07.265Z,83.97
2023-05-12T07:53:34.162Z,83.54
2023-05-12T07:56:00.767Z,83.85
2023-05-12T07:58:27.451Z,84.13
2023-05-12T08:00:54.526Z,84.43
2023-05-12T08:03:21.308Z,84.09
2023-05-12T08:05:47.907Z,82.51
2023-05-12T08:08:16.632Z,83.15
2023-05-12T08:10:44.225Z,83.55
2023-05-12T08:13:10.736Z,84.06
2023-05-12T08:15:37.290Z,85.53
2023-05-12T08:18:04.127Z,85.21
2023-05-12T08:20:33.559Z,85.60
2023-05-12T08:23:00.162Z,84.92
2023-05-12T08:25:30.124Z,83.41
2023-05-12T08:27:57.821Z,83.86
2023-05-12T08:30:24.404Z,85.40
2023-05-12T08:32:51.018Z,85.35
2023-05-12T08:35:17.903Z,82.96
2023-05-12T08:37:44.521Z,84.98
2023-05-12T08:40:20.930Z,83.00
2023-05-12T08:43:06.393Z,83.35
2023-05-12T08:45:37.146Z,85.05
2023-05-12T08:48:06.233Z,85.51
2023-05-12T08:50:35.840Z,82.79
2023-05-12T08:53:04.142Z,82.08
2023-05-12T08:55:33.664Z,81.44
2023-05-12T08:58:03.196Z,80.34
2023-05-12T09:00:32.689Z,81.38
2023-05-12T09:03:00.888Z,81.60
2023-05-12T09:05:29.860Z,79.28
2023-05-12T09:07:57.601Z,81.73
2023-05-12T09:10:34.986Z,82.05
2023-05-12T09:13:26.347Z,79.42
2023-05-12T09:15:56.429Z,79.67
2023-05-12T09:18:23.087Z,79.58
2023-05-12T09:20:49.592Z,80.06
2023-05-12T09:23:17.050Z,80.54
2023-05-12T09:25:44.624Z,80.74
2023-05-12T09:28:11.370Z,81.31
2023-05-12T09:30:38.456Z,77.88
2023-05-12T09:33:07.065Z,78.66
2023-05-12T09:35:39.009Z,79.23
2023-05-12T09:38:13.500Z,78.17
2023-05-12T09:40:40.250Z,75.09
2023-05-12T09:43:07.613Z,74.14
2023-05-12T09:45:36.010Z,73.93
2023-05-12T09:48:11.394Z,72.81
2023-05-12T09:50:48.696Z,73.36
2023-05-12T09:53:17.850Z,73.03
2023-05-12T09:55:45.816Z,71.67
2023-05-12T09:58:15.541Z,73.59
2023-05-12T10:01:05.985Z,73.06
2023-05-12T10:03:30.177Z,72.19
2023-05-12T10:06:02.632Z,68.44
2023-05-12T10:08:37.284Z,68.20
2023-05-12T10:11:06.452Z,68.83
2023-05-12T10:13:33.401Z,68.48
2023-05-12T10:16:00.708Z,67.74
2023-05-12T10:18:27.728Z,67.21
2023-05-12T10:20:56.086Z,66.01
2023-05-12T10:23:23.191Z,67.50
2023-05-12T10:25:50.405Z,67.90
2023-05-12T10:28:17.659Z,66.34
2023-05-12T10:30:45.300Z,67.18
2023-05-12T10:33:12.063Z,66.86
2023-05-12T10:35:40.054Z,67.73
2023-05-12T10:38:19.627Z,67.26
2023-05-12T10:40:59.720Z,64.00
2023-05-12T10:43:41.989Z,62.90
2023-05-12T10:46:20.669Z,65.72
2023-05-12T10:49:03.264Z,64.63
2023-05-12T10:51:45.039Z,65.42
2023-05-12T10:54:22.050Z,62.98
2023-05-12T10:56:49.847Z,61.06
2023-05-12T10:59:21.574Z,63.27
2023-05-12T11:02:05.180Z,64.05
2023-05-12T11:04:48.567Z,63.22
2023-05-12T11:07:20.396Z,63.26
2023-05-12T11:09:57.610Z,60.63
2023-05-12T11:12:28.649Z,60.07
2023-05-12T11:14:55.287Z,62.15
2023-05-12T11:17:21.884Z,60.71
2023-05-12T11:19:50.494Z,59.22
2023-05-12T11:22:19.754Z,60.35
2023-05-12T11:24:47.092Z,61.08
2023-05-12T11:27:15.489Z,60.75
2023-05-12T11:29:43.420Z,58.67
2023-05-12T11:32:12.331Z,58.81
2023-05-12T11:34:39.191Z,57.52
2023-05-12T11:37:08.814Z,57.69
2023-05-12T11:39:36.116Z,57.55
2023-05-12T11:42:12.201Z,59.82
2023-05-12T11:44:47.671Z,58.81
2023-05-12T11:47:15.526Z,59.17
2023-05-12T11:49:54.369Z,58.06
2023-05-12T11:52:23.629Z,56.50
2023-05-12T11:55:00.789Z,59.59
2023-05-12T11:57:28.772Z,57.47
2023-05-12T12:00:06.812Z,57.38
2023-05-12T12:02:33.892Z,59.48
2023-05-12T12:05:00.888Z,58.94
2023-05-12T12:07:36.752Z,59.24
2023-05-12T12:10:13.497Z,60.62
2023-05-12T12:12:41.135Z,60.21
2023-05-12T12:15:08.740Z,56.92
2023-05-12T12:17:35.475Z,56.83
2023-05-12T12:20:02.901Z,57.59
2023-05-12T12:22:33.939Z,57.20
2023-05-12T12:25:01.443Z,56.17
2023-05-12T12:27:28.011Z,57.84
2023-05-12T12:29:54.616Z,57.67
2023-05-12T12:32:21.111Z,58.33
2023-05-12T12:34:48.871Z,54.46
2023-05-12T12:37:15.987Z,56.92
2023-05-12T12:39:42.704Z,57.06
2023-05-12T12:42:09.271Z,53.72
2023-05-12T12:44:35.911Z,53.95
2023-05-12T12:47:02.583Z,53.43
2023-05-12T12:49:29.136Z,55.17
2023-05-12T12:51:55.928Z,53.74
2023-05-12T12:54:22.577Z,53.30
2023-05-12T12:56:49.098Z,52.48
2023-05-12T12:59:15.930Z,53.82
2023-05-12T13:01:42.671Z,54.98
2023-05-12T13:04:09.482Z,54.08
2023-05-12T13:06:36.905Z,52.92
2023-05-12T13:09:03.922Z,53.32
2023-05-12T13:11:30.472Z,51.43
2023-05-12T13:13:57.096Z,52.21
2023-05-12T13:16:23.661Z,50.78
2023-05-12T13:18:50.714Z,53.51
2023-05-12T13:21:18.649Z,54.10
2023-05-12T13:23:45.250Z,51.66
2023-05-12T13:26:11.858Z,55.92
2023-05-12T13:28:38.432Z,56.66
2023-05-12T13:31:05.949Z,52.41
2023-05-12T13:33:32.567Z,55.29
2023-05-12T13:35:59.232Z,55.55
2023-05-12T13:38:26.253Z,53.41
2023-05-12T13:40:52.927Z,50.73
2023-05-12T13:43:19.463Z,52.11
2023-05-12T13:45:46.032Z,50.00
2023-05-12T13:48:12.754Z,49.77
2023-05-12T13:50:39.298Z,50.50
2023-05-12T13:53:06.466Z,51.60
2023-05-12T13:55:34.165Z,49.72
2023-05-12T13:58:00.846Z,52.03
2023-05-12T14:00:29.617Z,53.28
2023-05-12T14:02:57.720Z,62.53
2023-05-12T14:05:24.791Z,68.27
2023-05-12T14:07:51.481Z,70.60
2023-05-12T14:10:18.500Z,74.49
2023-05-12T14:12:45.132Z,75.14
2023-05-12T14:15:21.972Z,80.01
2023-05-12T14:17:55.929Z,82.79
2023-05-12T14:20:22.410Z,83.74
2023-05-12T14:22:49.281Z,84.52
2023-05-12T14:25:16.172Z,88.41
2023-05-12T14:27:42.869Z,89.34
2023-05-12T14:30:10.523Z,90.79
2023-05-12T14:32:37.099Z,89.61
2023-05-12T14:35:04.105Z,91.94
2023-05-12T14:37:31.358Z,93.80
2023-05-12T14:39:57.870Z,93.88
2023-05-12T14:42:26.271Z,93.48
2023-05-12T14:44:52.737Z,94.11
2023-05-12T14:47:19.396Z,94.57
2023-05-12T14:49:46.105Z,94.06
2023-05-12T14:52:12.657Z,94.56
2023-05-12T14:54:39.153Z,96.01
2023-05-12T14:57:05.987Z,96.34
2023-05-12T14:59:32.654Z,97.72
2023-05-12T15:01:59.252Z,97.55
2023-05-12T15:04:27.022Z,97.93
2023-05-12T15:06:53.567Z,97.39
2023-05-12T15:09:20.270Z,98.40
2023-05-12T15:11:46.870Z,98.03
2023-05-12T15:14:13.509Z,98.38
2023-05-12T15:16:40.266Z,98.39
2023-05-12T15:19:06.909Z,99.63
2023-05-12T15:21:34.810Z,99.00
2023-05-12T15:24:02.110Z,100.00
2023-05-12T15:26:33.716Z,100.00
2023-05-12T15:29:02.011Z,97.45
2023-05-12T15:31:29.972Z,99.09
2023-05-12T15:33:57.660Z,98.60
2023-05-12T15:36:24.163Z,98.70
2023-05-12T15:38:50.753Z,99.44
2023-05-12T15:41:17.324Z,99.21
2023-05-12T15:43:43.876Z,97.41
2023-05-12T15:46:11.655Z,99.93
2023-05-12T15:48:39.143Z,98.23
2023-05-12T15:51:06.635Z,98.89
2023-05-12T15:53:33.620Z,100.00
2023-05-12T15:56:05.094Z,100.00
2023-05-12T15:58:32.077Z,99.00
2023-05-12T16:00:59.074Z,100.00
2023-05-12T16:03:26.320Z,100.00
2023-05-12T16:05:53.239Z,98.56
2023-05-12T16:08:20.282Z,100.00
2023-05-12T16:10:46.797Z,100.00
2023-05-12T16:13:14.423Z,100.00
2023-05-12T16:15:40.965Z,99.01
2023-05-12T16:18:10.926Z,97.95
2023-05-12T16:20:38.661Z,99.28
2023-05-12T16:23:05.152Z,100.00
2023-05-12T16:25:31.753Z,99.76
2023-05-12T16:27:58.328Z,99.89
2023-05-12T16:30:24.958Z,100.00
2023-05-12T16:32:51.534Z,100.00
2023-05-12T16:35:18.326Z,100.00
2023-05-12T16:37:44.975Z,100.00
2023-05-12T16:40:12.031Z,98.67
2023-05-12T16:42:38.587Z,99.36
2023-05-12T16:45:06.264Z,99.05
2023-05-12T16:47:32.766Z,100.00
2023-05-12T16:49:59.769Z,100.00
2023-05-12T16:52:26.995Z,98.10
2023-05-12T16:54:56.046Z,100.00
2023-05-12T16:57:23.109Z,98.18
2023-05-12T16:59:49.776Z,98.79
2023-05-12T17:02:16.582Z,100.00
2023-05-12T17:04:43.453Z,100.00
2023-05-12T17:07:10.263Z,100.00
2023-05-12T17:09:36.974Z,100.00
2023-05-12T17:12:04.337Z,100.00
2023-05-12T17:14:31.030Z,100.00
2023-05-12T17:16:57.625Z,100.00
2023-05-12T17:19:24.197Z,100.00
2023-05-12T17:21:50.723Z,100.00
2023-05-12T17:24:17.658Z,100.00
2023-05-12T17:26:44.813Z,100.00
2023-05-12T17:29:11.576Z,100.00
2023-05-12T17:31:38.390Z,100.00
2023-05-12T17:34:05.031Z,100.00
2023-05-12T17:36:31.571Z,100.00
2023-05-12T17:38:58.121Z,100.00
2023-05-12T17:41:25.512Z,100.00
2023-05-12T17:43:53.760Z,100.00
2023-05-12T17:46:20.499Z,100.00
2023-05-12T17:48:47.067Z,100.00
2023-05-12T17:51:13.539Z,100.00
2023-05-12T17:53:40.133Z,100.00
2023-05-12T17:56:06.800Z,100.00
2023-05-12T17:58:33.571Z,100.00
2023-05-12T18:01:00.093Z,100.00
2023-05-12T18:03:26.846Z,100.00
2023-05-12T18:05:54.180Z,99.77
2023-05-12T18:08:21.560Z,98.98
2023-05-12T18:10:48.235Z,99.22
2023-05-12T18:13:15.434Z,97.77
2023-05-12T18:15:42.336Z,96.67
2023-05-12T18:18:09.968Z,95.87
2023-05-12T18:20:36.834Z,93.96
2023-05-12T18:23:03.419Z,93.29
2023-05-12T18:25:29.947Z,93.80
2023-05-12T18:27:56.667Z,93.46
2023-05-12T18:30:23.160Z,93.55
2023-05-12T18:32:50.637Z,91.81
2023-05-12T18:35:17.262Z,93.22
2023-05-12T18:37:43.904Z,94.06
2023-05-12T18:40:11.141Z,93.01
2023-05-12T18:42:38.253Z,94.08
2023-05-12T18:45:05.431Z,91.72
2023-05-12T18:47:32.143Z,90.31
2023-05-12T18:49:59.037Z,90.09
2023-05-12T18:52:25.641Z,90.62
2023-05-12T18:54:52.141Z,90.42
2023-05-12T18:57:18.797Z,90.01
2023-05-12T18:59:45.442Z,89.56
2023-05-12T19:02:12.119Z,89.63
2023-05-12T19:04:39.096Z,89.36
2023-05-12T19:07:09.206Z,89.89
2023-05-12T19:09:36.620Z,88.23
2023-05-12T19:12:05.601Z,89.71
2023-05-12T19:14:32.299Z,89.82
2023-05-12T19:16:58.826Z,89.85
2023-05-12T19:19:25.646Z,90.31
2023-05-12T19:21:52.287Z,90.20
2023-05-12T19:24:19.307Z,92.10
2023-05-12T19:26:45.764Z,91.77
2023-05-12T19:29:12.418Z,91.35
2023-05-12T19:31:39.032Z,91.40
2023-05-12T19:34:05.644Z,90.88
2023-05-12T19:36:32.533Z,91.55
2023-05-12T19:39:00.217Z,90.34
2023-05-12T19:41:27.910Z,90.01
2023-05-12T19:43:55.903Z,90.00
2023-05-12T19:46:22.624Z,90.29
2023-05-12T19:48:50.690Z,90.58
2023-05-12T19:51:17.268Z,91.37
2023-05-12T19:53:44.042Z,91.67
2023-05-12T19:56:10.607Z,91.58
2023-05-12T19:58:37.235Z,90.80
2023-05-12T20:01:03.788Z,90.93
2023-05-12T20:03:30.497Z,90.87
2023-05-12T20:05:58.446Z,91.42
2023-05-12T20:08:24.983Z,91.93
2023-05-12T20:10:51.474Z,91.47
2023-05-12T20:13:18.014Z,91.36
2023-05-12T20:15:44.560Z,92.01
2023-05-12T20:18:12.603Z,91.46
2023-05-12T20:20:39.205Z,91.40
2023-05-12T20:23:05.757Z,93.25
2023-05-12T20:25:33.088Z,93.25
2023-05-12T20:27:59.759Z,91.46
2023-05-12T20:30:26.651Z,92.51
2023-05-12T20:32:53.301Z,92.26
2023-05-12T20:35:20.518Z,92.01
2023-05-12T20:37:47.302Z,91.47
2023-05-12T20:40:14.058Z,90.70
2023-05-12T20:42:40.738Z,92.30
2023-05-12T20:45:07.783Z,91.24
2023-05-12T20:47:34.884Z,90.13
2023-05-12T20:50:05.358Z,88.22
2023-05-12T20:52:39.618Z,86.94
2023-05-12T20:55:07.007Z,86.75
2023-05-12T20:57:33.838Z,87.51
2023-05-12T21:00:00.462Z,87.34
2023-05-12T21:02:28.995Z,86.18
2023-05-12T21:04:56.138Z,85.88
2023-05-12T21:07:22.667Z,85.37
2023-05-12T21:09:49.401Z,85.65
2023-05-12T21:12:15.931Z,84.98
2023-05-12T21:14:44.871Z,84.53
2023-05-12T21:17:12.019Z,83.67
2023-05-12T21:19:40.231Z,84.21
2023-05-12T21:22:08.931Z,83.18
2023-05-12T21:24:37.189Z,82.50
2023-05-12T21:27:05.573Z,82.87
2023-05-12T21:29:33.030Z,81.44
2023-05-12T21:32:00.452Z,82.38
2023-05-12T21:34:27.312Z,81.95
2023-05-12T21:36:54.612Z,81.69
2023-05-12T21:39:21.809Z,80.98
2023-05-12T21:41:48.385Z,80.41
2023-05-12T21:44:15.001Z,79.87
2023-05-12T21:46:42.421Z,80.32
2023-05-12T21:49:09.149Z,80.00
2023-05-12T21:51:35.700Z,80.71
2023-05-12T21:54:02.310Z,79.31
2023-05-12T21:56:28.877Z,78.97
2023-05-12T21:58:55.706Z,77.74
2023-05-12T22:01:22.602Z,78.24
2023-05-12T22:03:49.599Z,76.83
2023-05-12T22:06:16.564Z,77.17
2023-05-12T22:08:43.327Z,77.43
2023-05-12T22:11:10.679Z,77.02
2023-05-12T22:13:37.318Z,77.14
2023-05-12T22:16:04.166Z,76.26
2023-05-12T22:18:31.577Z,75.63
2023-05-12T22:20:58.760Z,75.34
2023-05-12T22:23:25.352Z,74.04
2023-05-12T22:25:51.943Z,73.33
2023-05-12T22:28:18.616Z,72.89
2023-05-12T22:30:45.407Z,72.95
2023-05-12T22:33:12.016Z,72.38
2023-05-12T22:35:38.674Z,72.67
2023-05-12T22:38:05.579Z,71.35
2023-05-12T22:40:33.413Z,71.76
2023-05-12T22:43:00.049Z,71.21
2023-05-12T22:45:26.559Z,71.29
2023-05-12T22:47:53.212Z,71.04
2023-05-12T22:50:20.236Z,70.30
2023-05-12T22:52:46.927Z,70.34
2023-05-12T22:55:13.420Z,70.13
2023-05-12T22:57:40.816Z,70.20
2023-05-12T23:00:08.050Z,69.60
2023-05-12T23:02:34.622Z,69.42
2023-05-12T23:05:01.334Z,68.96
2023-05-12T23:07:27.974Z,68.43
2023-05-12T23:09:54.507Z,68.03
2023-05-12T23:12:21.083Z,67.90
2023-05-12T23:14:47.733Z,68.31
2023-05-12T23:17:14.462Z,68.09
2023-05-12T23:19:40.971Z,68.28
2023-05-12T23:22:07.533Z,68.77
2023-05-12T23:24:35.900Z,67.64
2023-05-12T23:27:02.456Z,67.55
2023-05-12T23:29:29.090Z,67.29
2023-05-12T23:31:56.148Z,66.31
2023-05-12T23:34:22.918Z,66.20
2023-05-12T23:36:49.415Z,66.00
2023-05-12T23:39:15.992Z,65.09
2023-05-12T23:41:42.470Z,64.85
2023-05-12T23:44:09.100Z,64.68
2023-05-12T23:46:35.689Z,63.85
2023-05-12T23:49:02.370Z,64.54
2023-05-12T23:51:29.314Z,63.64
2023-05-12T23:53:55.820Z,64.34
2023-05-12T23:56:22.713Z,65.52
2023-05-12T23:58:49.225Z,66.19
